Time;durP1;ratioP1;P1;durP2;ratioP2;P2;SDS_P1;SDS_P2;PMS_P1;PMS_P2;Temp;Humidity;BMP_temperature;BMP_pressure;BME280_temperature;BME280_humidity;BME280_pressure;Samples;Min_cycle;Max_cycle;Signal;HPM_P1;HPM_P2
2021/10/03 00:00:41;;;;;;;1.65;0.88;;;16.10;99.90;;;;;;4936066;28;20031;-84
2021/10/03 00:03:10;;;;;;;1.65;0.90;;;16.20;99.90;;;;;;4966374;28;20046;-86
2021/10/03 00:05:37;;;;;;;1.38;0.80;;;16.20;99.90;;;;;;4940394;28;20030;-86
2021/10/03 00:08:05;;;;;;;1.42;0.90;;;16.20;99.90;;;;;;4970131;28;20106;-85
2021/10/03 00:10:35;;;;;;;1.92;0.80;;;16.20;99.90;;;;;;4954353;28;20367;-86
2021/10/03 00:13:05;;;;;;;1.63;1.15;;;16.30;99.90;;;;;;4953787;28;20033;-85
2021/10/03 00:15:33;;;;;;;2.03;0.90;;;16.30;99.90;;;;;;4980887;28;20474;-85
2021/10/03 00:17:59;;;;;;;2.58;1.02;;;16.30;99.90;;;;;;4958979;28;20023;-85
2021/10/03 00:20:25;;;;;;;1.58;0.93;;;16.40;99.90;;;;;;4930314;28;20046;-86
2021/10/03 00:22:51;;;;;;;1.90;1.05;;;16.40;99.90;;;;;;4952055;28;20027;-85
2021/10/03 00:25:17;;;;;;;1.73;0.90;;;16.40;99.90;;;;;;4952225;28;20505;-84
2021/10/03 00:27:45;;;;;;;1.55;0.90;;;16.40;99.90;;;;;;4944030;29;20027;-85
2021/10/03 00:30:13;;;;;;;1.27;0.70;;;16.40;99.90;;;;;;4945230;28;20121;-86
2021/10/03 00:32:40;;;;;;;1.80;1.13;;;16.50;99.90;;;;;;4955278;28;20039;-85
2021/10/03 00:35:08;;;;;;;1.67;0.85;;;16.50;99.90;;;;;;4942667;28;20027;-86
2021/10/03 00:37:34;;;;;;;1.60;1.00;;;16.60;99.90;;;;;;4944930;28;20114;-86
2021/10/03 00:40:00;;;;;;;1.65;0.70;;;16.60;99.90;;;;;;4978501;28;20065;-85
2021/10/03 00:42:26;;;;;;;0.60;0.60;;;16.60;99.90;;;;;;4960360;28;20371;-84
2021/10/03 00:44:52;;;;;;;1.50;0.70;;;16.70;99.90;;;;;;4960831;28;20081;-86
2021/10/03 00:47:19;;;;;;;2.38;0.80;;;16.70;99.90;;;;;;4960951;28;20055;-85
2021/10/03 00:49:45;;;;;;;0.80;0.57;;;16.70;99.90;;;;;;4960637;28;20382;-85
2021/10/03 00:52:11;;;;;;;2.28;0.60;;;16.70;99.90;;;;;;4960768;28;20114;-85
2021/10/03 00:54:38;;;;;;;2.13;0.60;;;16.80;99.90;;;;;;4960763;28;20030;-85
2021/10/03 00:57:03;;;;;;;1.35;0.60;;;16.80;99.90;;;;;;4960880;28;20379;-85
2021/10/03 00:59:31;;;;;;;1.77;0.70;;;16.80;99.90;;;;;;4960781;28;20109;-85
2021/10/03 01:02:06;;;;;;;0.65;0.50;;;16.80;99.90;;;;;;4959310;28;20026;-85
2021/10/03 01:04:32;;;;;;;1.50;0.60;;;16.70;99.90;;;;;;4959054;28;20069;-86
2021/10/03 01:06:58;;;;;;;0.52;0.50;;;16.70;99.90;;;;;;4976998;28;20023;-85
2021/10/03 01:09:24;;;;;;;2.17;0.90;;;16.80;99.90;;;;;;4959509;28;20030;-86
2021/10/03 01:11:49;;;;;;;0.95;0.70;;;16.80;99.90;;;;;;4959910;28;20022;-86
2021/10/03 01:14:17;;;;;;;1.45;0.90;;;16.80;99.90;;;;;;4959789;28;20042;-85
2021/10/03 01:16:45;;;;;;;0.93;0.60;;;16.80;99.90;;;;;;4944030;29;20121;-86
2021/10/03 01:19:12;;;;;;;1.48;0.70;;;16.70;99.90;;;;;;4940301;29;20039;-87
2021/10/03 01:21:38;;;;;;;1.30;0.75;;;16.70;99.90;;;;;;4955926;29;20086;-86
2021/10/03 01:24:04;;;;;;;0.93;0.70;;;16.60;99.90;;;;;;4957152;29;20029;-86
2021/10/03 01:26:31;;;;;;;3.38;0.80;;;16.50;99.90;;;;;;4940366;29;20023;-86
2021/10/03 01:28:57;;;;;;;2.53;0.80;;;16.50;99.90;;;;;;4940784;29;20031;-86
2021/10/03 01:31:26;;;;;;;2.22;0.80;;;16.50;99.90;;;;;;4939961;29;20530;-86
2021/10/03 01:33:55;;;;;;;0.98;0.70;;;16.40;99.90;;;;;;4952942;29;20118;-86
2021/10/03 01:36:21;;;;;;;1.00;0.60;;;16.40;99.90;;;;;;4946360;29;20026;-86
2021/10/03 01:38:49;;;;;;;0.90;0.65;;;16.40;99.90;;;;;;4954302;28;20415;-84
2021/10/03 01:41:16;;;;;;;1.45;0.75;;;16.40;99.90;;;;;;4935948;29;20051;-85
2021/10/03 01:43:42;;;;;;;0.93;0.80;;;16.40;99.90;;;;;;4951973;28;20051;-85
2021/10/03 01:46:08;;;;;;;1.52;0.80;;;16.40;99.90;;;;;;4971010;28;20020;-85
2021/10/03 01:48:34;;;;;;;1.40;0.80;;;16.30;99.90;;;;;;4968174;28;20495;-86
2021/10/03 01:51:06;;;;;;;1.73;0.77;;;16.40;99.90;;;;;;4955752;29;20471;-86
2021/10/03 01:53:38;;;;;;;1.42;0.80;;;16.40;99.90;;;;;;4970850;28;20082;-85
2021/10/03 01:56:08;;;;;;;0.80;0.70;;;16.30;99.90;;;;;;4972513;28;20022;-85
2021/10/03 01:58:43;;;;;;;1.42;0.70;;;16.30;99.90;;;;;;4957947;28;20077;-85
2021/10/03 02:01:20;;;;;;;1.10;0.80;;;16.40;99.90;;;;;;4940660;29;20059;-85
2021/10/03 02:03:46;;;;;;;1.60;0.82;;;16.40;99.90;;;;;;4957367;28;20023;-85
2021/10/03 02:06:12;;;;;;;1.30;0.80;;;16.30;99.90;;;;;;4957812;28;20187;-85
2021/10/03 02:08:38;;;;;;;1.67;0.82;;;16.40;99.90;;;;;;4971883;28;20511;-86
2021/10/03 02:11:04;;;;;;;2.33;0.82;;;16.40;99.90;;;;;;4961268;28;20027;-86
2021/10/03 02:13:30;;;;;;;1.60;0.77;;;16.40;99.90;;;;;;4972224;28;20042;-86
2021/10/03 02:16:00;;;;;;;1.05;0.75;;;16.40;99.90;;;;;;4972269;28;20028;-86
2021/10/03 02:18:36;;;;;;;1.63;0.90;;;16.40;99.90;;;;;;4956156;29;20038;-85
2021/10/03 02:21:04;;;;;;;2.00;0.80;;;16.50;99.90;;;;;;4957426;28;20019;-85
2021/10/03 02:23:30;;;;;;;1.33;0.70;;;16.40;99.90;;;;;;4971848;28;20038;-86
2021/10/03 02:25:57;;;;;;;1.80;1.08;;;16.40;99.90;;;;;;4972030;28;20460;-84
2021/10/03 02:28:25;;;;;;;1.65;0.82;;;16.40;99.90;;;;;;4956849;28;20480;-85
2021/10/03 02:30:55;;;;;;;2.45;1.02;;;16.40;99.90;;;;;;4956808;28;20551;-85
2021/10/03 02:33:21;;;;;;;1.08;0.80;;;16.50;99.90;;;;;;4971990;28;20024;-85
2021/10/03 02:35:48;;;;;;;2.25;0.90;;;16.50;99.90;;;;;;4971500;28;20027;-85
2021/10/03 02:38:16;;;;;;;3.05;0.90;;;16.50;99.90;;;;;;4971768;28;20348;-84
2021/10/03 02:40:44;;;;;;;1.95;1.08;;;16.50;99.90;;;;;;4971345;28;20447;-85
2021/10/03 02:43:10;;;;;;;3.15;1.38;;;16.40;99.90;;;;;;4969596;28;20131;-84
2021/10/03 02:45:41;;;;;;;3.53;1.13;;;16.40;99.90;;;;;;4955405;29;20022;-84
2021/10/03 02:48:07;;;;;;;2.00;1.02;;;16.50;99.90;;;;;;4956686;29;20020;-85
2021/10/03 02:50:33;;;;;;;1.75;1.10;;;16.40;99.90;;;;;;4954993;29;20024;-85
2021/10/03 02:52:59;;;;;;;3.47;1.33;;;16.40;99.90;;;;;;4955309;29;20055;-85
2021/10/03 02:55:26;;;;;;;2.60;1.40;;;16.40;99.90;;;;;;4956477;29;20392;-85
2021/10/03 02:57:52;;;;;;;2.08;1.23;;;16.40;99.90;;;;;;4955084;28;20089;-84
2021/10/03 03:00:17;;;;;;;1.70;0.90;;;16.50;99.90;;;;;;4956641;29;20073;-85
2021/10/03 03:02:43;;;;;;;1.95;1.08;;;16.40;99.90;;;;;;4955246;29;20456;-85
2021/10/03 03:05:10;;;;;;;1.65;1.05;;;16.40;99.90;;;;;;4955189;29;20429;-85
2021/10/03 03:07:37;;;;;;;1.00;0.88;;;16.40;99.90;;;;;;4956467;29;20110;-85
2021/10/03 03:10:05;;;;;;;1.52;0.90;;;16.40;99.90;;;;;;4954963;29;20031;-85
2021/10/03 03:12:30;;;;;;;1.42;0.90;;;16.50;99.90;;;;;;4955071;29;20165;-86
2021/10/03 03:14:56;;;;;;;3.33;1.20;;;16.40;99.90;;;;;;4954899;29;20495;-86
2021/10/03 03:17:24;;;;;;;2.33;1.30;;;16.50;99.90;;;;;;4955886;29;20023;-85
2021/10/03 03:19:50;;;;;;;1.40;1.00;;;16.50;99.90;;;;;;4954671;29;20126;-86
2021/10/03 03:22:16;;;;;;;2.08;1.10;;;16.50;99.90;;;;;;4954800;29;20536;-86
2021/10/03 03:24:43;;;;;;;1.73;1.30;;;16.50;99.90;;;;;;4954873;29;20059;-85
2021/10/03 03:27:10;;;;;;;1.80;1.20;;;16.40;99.90;;;;;;4954713;29;20114;-86
2021/10/03 03:29:36;;;;;;;2.28;1.50;;;16.50;99.90;;;;;;4954434;29;20035;-86
2021/10/03 03:32:03;;;;;;;1.98;1.23;;;16.50;99.90;;;;;;4954809;29;20155;-85
2021/10/03 03:34:30;;;;;;;3.15;1.58;;;16.50;99.90;;;;;;4954443;29;20034;-88
2021/10/03 03:36:57;;;;;;;2.35;1.52;;;16.50;99.90;;;;;;4954965;29;20452;-86
2021/10/03 03:39:23;;;;;;;5.72;2.55;;;16.50;99.90;;;;;;4954648;29;20026;-85
2021/10/03 03:41:49;;;;;;;3.30;1.80;;;16.50;99.90;;;;;;4954654;29;20019;-84
2021/10/03 03:44:15;;;;;;;2.88;1.63;;;16.50;99.90;;;;;;4969619;28;20085;-85
2021/10/03 03:46:41;;;;;;;2.10;1.50;;;16.50;99.90;;;;;;4973979;28;20102;-86
2021/10/03 03:49:07;;;;;;;1.50;1.02;;;16.50;99.90;;;;;;4975269;28;20070;-86
2021/10/03 03:51:33;;;;;;;1.88;1.00;;;16.50;99.90;;;;;;4973764;28;20023;-84
2021/10/03 03:53:58;;;;;;;2.25;0.80;;;16.30;99.90;;;;;;4973752;28;20022;-85
2021/10/03 03:56:24;;;;;;;1.75;0.60;;;16.10;99.90;;;;;;4957493;28;20023;-85
2021/10/03 03:58:50;;;;;;;1.58;0.40;;;16.00;99.90;;;;;;4957471;28;20082;-85
2021/10/03 04:01:15;;;;;;;1.42;0.32;;;15.80;99.90;;;;;;4973896;28;20034;-85
2021/10/03 04:03:41;;;;;;;0.88;0.38;;;15.70;99.90;;;;;;4973505;28;20415;-86
2021/10/03 04:06:07;;;;;;;1.42;0.30;;;15.60;99.90;;;;;;4973764;28;20034;-85
2021/10/03 04:08:33;;;;;;;1.30;0.40;;;15.50;99.90;;;;;;4973701;28;20034;-85
2021/10/03 04:10:58;;;;;;;0.80;0.30;;;15.50;99.90;;;;;;4960559;28;20023;-85
2021/10/03 04:13:24;;;;;;;2.10;0.50;;;15.40;99.90;;;;;;4977856;28;20065;-86
2021/10/03 04:15:50;;;;;;;1.75;0.50;;;15.50;99.90;;;;;;4961608;28;20098;-86
2021/10/03 04:18:16;;;;;;;1.25;0.40;;;15.50;99.90;;;;;;4977580;28;20514;-85
2021/10/03 04:20:42;;;;;;;1.10;0.60;;;15.40;99.90;;;;;;4977395;28;20029;-87
2021/10/03 04:23:08;;;;;;;2.03;0.50;;;15.40;99.90;;;;;;4978154;28;20366;-86
2021/10/03 04:25:34;;;;;;;0.73;0.50;;;15.40;99.90;;;;;;4977613;28;20018;-86
2021/10/03 04:28:00;;;;;;;2.53;0.60;;;15.30;99.90;;;;;;4977736;28;20110;-86
2021/10/03 04:30:25;;;;;;;1.92;0.50;;;15.30;99.90;;;;;;4977436;28;20077;-86
2021/10/03 04:32:51;;;;;;;1.00;0.52;;;15.20;99.90;;;;;;4977596;28;20018;-86
2021/10/03 04:35:17;;;;;;;1.63;0.52;;;15.20;99.90;;;;;;4977458;28;20521;-87
2021/10/03 04:37:43;;;;;;;1.38;0.55;;;15.10;99.90;;;;;;4978515;28;20027;-87
2021/10/03 04:40:09;;;;;;;2.00;0.43;;;15.00;99.90;;;;;;4977312;28;20022;-86
2021/10/03 04:42:35;;;;;;;1.08;0.50;;;14.90;99.90;;;;;;4977034;28;20023;-86
2021/10/03 04:45:01;;;;;;;1.20;0.40;;;14.90;99.90;;;;;;4977320;28;20034;-86
2021/10/03 04:47:26;;;;;;;0.70;0.38;;;14.80;99.90;;;;;;4977212;28;20023;-87
2021/10/03 04:49:54;;;;;;;0.30;0.28;;;14.80;99.90;;;;;;4978720;28;20035;-86
2021/10/03 04:52:25;;;;;;;2.05;0.40;;;14.70;99.90;;;;;;4977381;28;20031;-86
2021/10/03 04:54:51;;;;;;;2.55;0.50;;;14.80;99.90;;;;;;4961311;28;20463;-85
2021/10/03 04:57:18;;;;;;;1.10;0.50;;;14.80;99.90;;;;;;4977030;28;20031;-85
2021/10/03 04:59:43;;;;;;;1.60;0.43;;;14.80;99.90;;;;;;4977084;28;20030;-86
2021/10/03 05:02:09;;;;;;;3.05;0.50;;;14.80;99.90;;;;;;4945290;28;20030;-87
2021/10/03 05:04:35;;;;;;;1.13;0.50;;;14.80;99.90;;;;;;4977204;28;20023;-87
2021/10/03 05:07:01;;;;;;;0.70;0.50;;;14.80;99.90;;;;;;4977051;28;20033;-86
2021/10/03 05:09:27;;;;;;;1.50;0.40;;;14.70;99.90;;;;;;4977810;28;20023;-86
2021/10/03 05:11:52;;;;;;;1.92;0.57;;;14.70;99.90;;;;;;4976857;28;20117;-86
2021/10/03 05:14:18;;;;;;;2.85;0.50;;;14.60;99.90;;;;;;4976911;28;20029;-86
2021/10/03 05:16:44;;;;;;;0.88;0.30;;;14.50;99.90;;;;;;4960718;28;20027;-86
2021/10/03 05:19:10;;;;;;;0.68;0.32;;;14.40;99.90;;;;;;4976771;28;20062;-88
2021/10/03 05:21:36;;;;;;;0.80;0.30;;;14.30;99.90;;;;;;4976454;28;20062;-87
2021/10/03 05:24:05;;;;;;;0.55;0.30;;;14.30;99.90;;;;;;4976559;28;20494;-87
2021/10/03 05:26:31;;;;;;;1.00;0.30;;;14.30;99.90;;;;;;4976687;28;20031;-87
2021/10/03 05:28:57;;;;;;;0.77;0.30;;;14.30;99.90;;;;;;4976585;28;20402;-87
2021/10/03 05:31:23;;;;;;;2.63;0.45;;;14.30;99.90;;;;;;4976486;28;20023;-86
2021/10/03 05:33:50;;;;;;;1.48;0.40;;;14.30;99.90;;;;;;4976499;28;20046;-86
2021/10/03 05:36:16;;;;;;;2.83;0.52;;;14.30;99.90;;;;;;4976414;28;20019;-85
2021/10/03 05:38:42;;;;;;;0.88;0.50;;;14.30;99.90;;;;;;4976461;28;20031;-85
2021/10/03 05:41:10;;;;;;;2.03;0.52;;;14.40;99.90;;;;;;4976013;28;20018;-86
2021/10/03 05:43:37;;;;;;;1.05;0.40;;;14.30;99.90;;;;;;4975991;28;20043;-86
2021/10/03 05:46:08;;;;;;;1.10;0.50;;;14.30;99.90;;;;;;4977907;28;20158;-87
2021/10/03 05:48:34;;;;;;;1.13;0.40;;;14.40;99.90;;;;;;4976155;28;20023;-86
2021/10/03 05:51:01;;;;;;;1.02;0.47;;;14.30;99.90;;;;;;4976092;28;20025;-87
2021/10/03 05:53:27;;;;;;;1.20;0.60;;;14.40;99.90;;;;;;4976193;28;20031;-86
2021/10/03 05:55:54;;;;;;;1.42;0.50;;;14.40;99.90;;;;;;4959816;28;20023;-85
2021/10/03 05:58:20;;;;;;;1.52;0.40;;;14.30;99.90;;;;;;4975973;28;20455;-85
2021/10/03 06:00:46;;;;;;;1.77;0.68;;;14.30;99.90;;;;;;4975934;28;20478;-85
2021/10/03 06:03:12;;;;;;;2.67;0.70;;;14.30;99.90;;;;;;4975634;28;20023;-85
2021/10/03 06:05:37;;;;;;;2.25;0.60;;;14.30;99.90;;;;;;4975778;28;20376;-86
2021/10/03 06:08:03;;;;;;;2.05;0.80;;;14.30;99.90;;;;;;4975859;28;20022;-85
2021/10/03 06:10:29;;;;;;;1.33;0.60;;;14.30;99.90;;;;;;4975672;28;20460;-85
2021/10/03 06:12:58;;;;;;;1.25;0.52;;;14.30;99.90;;;;;;4975778;28;20015;-86
2021/10/03 06:15:24;;;;;;;1.65;0.60;;;14.40;99.90;;;;;;4977055;28;20026;-85
2021/10/03 06:17:51;;;;;;;3.20;0.93;;;14.40;99.90;;;;;;4975341;28;20022;-85
2021/10/03 06:20:17;;;;;;;1.02;0.68;;;14.40;99.90;;;;;;4975626;28;20475;-86
2021/10/03 06:22:46;;;;;;;2.58;0.85;;;14.40;99.90;;;;;;4975523;28;20179;-86
2021/10/03 06:25:13;;;;;;;1.80;0.77;;;14.40;99.90;;;;;;4975294;28;20019;-85
2021/10/03 06:27:39;;;;;;;1.85;0.80;;;14.40;99.90;;;;;;4975689;28;20019;-86
2021/10/03 06:30:06;;;;;;;1.75;1.15;;;14.40;99.90;;;;;;4975362;28;20031;-86
2021/10/03 06:32:32;;;;;;;2.03;0.90;;;14.40;99.90;;;;;;4974597;28;20015;-86
2021/10/03 06:34:57;;;;;;;2.05;0.77;;;14.40;99.90;;;;;;4975370;28;20077;-86
2021/10/03 06:37:24;;;;;;;2.40;0.85;;;14.40;99.90;;;;;;4976279;28;20015;-85
2021/10/03 06:39:49;;;;;;;1.73;1.00;;;14.50;99.90;;;;;;4975242;28;20027;-85
2021/10/03 06:42:15;;;;;;;1.92;1.10;;;14.40;99.90;;;;;;4975160;28;20023;-86
2021/10/03 06:44:42;;;;;;;1.77;1.02;;;14.40;99.90;;;;;;4975121;28;20478;-85
2021/10/03 06:47:11;;;;;;;4.10;1.15;;;14.50;99.90;;;;;;4976525;28;20352;-86
2021/10/03 06:49:38;;;;;;;1.83;0.98;;;14.50;99.90;;;;;;4974984;28;20399;-86
2021/10/03 06:52:05;;;;;;;2.92;1.10;;;14.50;99.90;;;;;;4975091;28;20030;-85
2021/10/03 06:54:31;;;;;;;2.40;1.13;;;14.50;99.90;;;;;;4975232;28;20366;-84
2021/10/03 06:56:56;;;;;;;1.98;1.00;;;14.50;99.90;;;;;;4976246;28;20028;-85
2021/10/03 06:59:22;;;;;;;2.17;1.10;;;14.50;99.90;;;;;;4974762;28;20034;-85
2021/10/03 07:01:48;;;;;;;2.67;1.20;;;14.50;99.90;;;;;;4974882;28;20114;-85
2021/10/03 07:04:14;;;;;;;3.30;0.90;;;14.50;99.90;;;;;;4974730;28;20362;-86
2021/10/03 07:06:39;;;;;;;1.92;0.93;;;14.50;99.90;;;;;;4974552;28;20023;-88
2021/10/03 07:09:05;;;;;;;2.50;1.10;;;14.50;99.90;;;;;;4974592;28;20428;-86
2021/10/03 07:11:31;;;;;;;3.53;1.05;;;14.50;99.90;;;;;;4974535;28;20526;-84
2021/10/03 07:13:57;;;;;;;2.28;1.23;;;14.50;99.90;;;;;;4974457;28;20023;-85
2021/10/03 07:16:23;;;;;;;2.15;1.27;;;14.50;99.90;;;;;;4973170;28;20066;-85
2021/10/03 07:18:49;;;;;;;2.55;1.00;;;14.40;99.90;;;;;;4973347;28;20058;-87
2021/10/03 07:21:16;;;;;;;2.20;1.27;;;14.40;99.90;;;;;;4971842;28;20054;-86
2021/10/03 07:23:45;;;;;;;2.40;1.40;;;14.40;99.90;;;;;;4964369;28;20077;-86
2021/10/03 07:26:11;;;;;;;1.67;1.15;;;14.40;99.90;;;;;;4963220;28;20018;-86
2021/10/03 07:28:38;;;;;;;2.45;1.20;;;14.40;99.90;;;;;;4964504;28;20455;-84
2021/10/03 07:31:09;;;;;;;3.13;1.40;;;14.40;99.90;;;;;;4945790;28;20031;-84
2021/10/03 07:33:35;;;;;;;2.20;1.10;;;14.40;99.90;;;;;;4961219;28;20019;-84
2021/10/03 07:36:02;;;;;;;3.30;1.30;;;14.40;99.90;;;;;;4946244;28;20033;-84
2021/10/03 07:38:28;;;;;;;1.80;1.00;;;14.30;99.90;;;;;;4964559;28;20030;-86
2021/10/03 07:40:54;;;;;;;3.33;1.20;;;14.40;99.90;;;;;;4945401;28;20800;-86
2021/10/03 07:43:19;;;;;;;2.08;1.27;;;14.30;99.90;;;;;;4946258;28;20042;-85
2021/10/03 07:45:45;;;;;;;3.15;1.30;;;14.30;99.90;;;;;;4962142;28;20427;-86
2021/10/03 07:48:11;;;;;;;3.33;1.25;;;14.30;99.90;;;;;;4962444;28;20633;-86
2021/10/03 07:50:36;;;;;;;4.30;1.35;;;14.30;99.90;;;;;;4946812;28;20481;-86
2021/10/03 07:53:02;;;;;;;2.60;1.30;;;14.30;99.90;;;;;;4962198;28;20391;-87
2021/10/03 07:55:28;;;;;;;2.47;1.20;;;14.20;99.90;;;;;;4960956;28;20019;-86
2021/10/03 07:58:05;;;;;;;2.65;1.17;;;14.30;99.90;;;;;;4962813;28;20014;-86
2021/10/03 08:00:32;;;;;;;1.70;1.15;;;14.30;99.90;;;;;;4946879;28;20108;-86
2021/10/03 08:02:58;;;;;;;1.75;1.13;;;14.30;99.90;;;;;;4961984;28;20031;-86
2021/10/03 08:05:25;;;;;;;2.33;1.45;;;14.30;99.90;;;;;;4962965;28;20015;-85
2021/10/03 08:07:51;;;;;;;1.40;0.85;;;14.30;99.90;;;;;;4963799;28;20019;-87
2021/10/03 08:10:17;;;;;;;1.73;1.15;;;14.30;99.90;;;;;;4959882;28;20027;-85
2021/10/03 08:12:43;;;;;;;1.20;0.90;;;14.30;99.90;;;;;;4962158;28;20031;-85
2021/10/03 08:15:10;;;;;;;1.10;0.80;;;14.30;99.90;;;;;;4944781;28;20375;-86
2021/10/03 08:17:36;;;;;;;1.48;0.85;;;14.20;99.90;;;;;;4960663;28;20031;-87
2021/10/03 08:20:03;;;;;;;1.30;0.80;;;14.20;99.90;;;;;;4963115;28;20443;-86
2021/10/03 08:22:29;;;;;;;1.25;0.70;;;14.20;99.90;;;;;;4959517;28;20045;-86
2021/10/03 08:24:55;;;;;;;1.77;0.70;;;14.20;99.90;;;;;;4929343;28;20044;-85
2021/10/03 08:27:21;;;;;;;1.58;0.90;;;14.20;99.90;;;;;;4945297;28;20023;-86
2021/10/03 08:29:48;;;;;;;1.00;0.60;;;14.20;99.90;;;;;;4962095;28;20026;-85
2021/10/03 08:32:14;;;;;;;1.23;0.63;;;14.10;99.90;;;;;;4955253;29;20030;-86
2021/10/03 08:34:40;;;;;;;1.95;0.50;;;13.90;99.90;;;;;;4942289;28;20125;-87
2021/10/03 08:37:09;;;;;;;1.13;0.50;;;13.80;99.90;;;;;;4975642;28;20025;-86
2021/10/03 08:39:35;;;;;;;1.15;0.60;;;13.80;99.90;;;;;;4958727;28;20099;-87
2021/10/03 08:42:03;;;;;;;1.48;0.40;;;13.80;99.90;;;;;;4942747;28;20458;-86
2021/10/03 08:44:31;;;;;;;3.75;0.60;;;13.70;99.90;;;;;;4963942;28;20051;-86
2021/10/03 08:47:12;;;;;;;0.98;0.52;;;13.70;99.90;;;;;;4939069;29;20186;-87
2021/10/03 08:49:38;;;;;;;1.15;0.50;;;13.70;99.90;;;;;;4939479;29;20031;-88
2021/10/03 08:52:08;;;;;;;2.03;0.50;;;13.70;99.90;;;;;;4923988;29;20039;-86
2021/10/03 08:54:38;;;;;;;2.05;0.50;;;13.60;99.90;;;;;;4947519;29;20023;-86
2021/10/03 08:57:05;;;;;;;1.65;0.40;;;13.60;99.90;;;;;;4949638;29;20027;-86
2021/10/03 08:59:31;;;;;;;2.15;0.50;;;13.60;99.90;;;;;;4939820;29;20494;-87
2021/10/03 09:01:58;;;;;;;2.40;0.52;;;13.50;99.90;;;;;;4939386;29;20066;-86
2021/10/03 09:04:30;;;;;;;1.10;0.50;;;13.60;99.90;;;;;;4956537;29;20102;-86
2021/10/03 09:07:05;;;;;;;0.73;0.50;;;13.60;99.90;;;;;;4928441;29;20023;-87
2021/10/03 09:09:56;;;;;;;1.40;0.50;;;13.60;99.90;;;;;;4928848;29;20050;-86
2021/10/03 09:12:40;;;;;;;2.50;0.60;;;13.70;99.90;;;;;;4930871;29;20063;-87
2021/10/03 09:15:17;;;;;;;1.25;0.50;;;13.70;99.90;;;;;;4947213;29;20042;-86
2021/10/03 09:17:54;;;;;;;1.23;0.60;;;13.60;99.90;;;;;;4946565;29;20066;-85
2021/10/03 09:20:26;;;;;;;1.00;0.50;;;13.70;99.90;;;;;;4944411;28;20026;-86
2021/10/03 09:23:11;;;;;;;0.83;0.60;;;13.60;99.90;;;;;;4928451;29;20194;-87
2021/10/03 09:25:45;;;;;;;1.45;0.60;;;13.60;99.90;;;;;;4946310;29;20268;-85
2021/10/03 09:28:23;;;;;;;1.85;0.60;;;13.60;99.90;;;;;;4943460;29;20030;-85
2021/10/03 09:31:04;;;;;;;0.90;0.70;;;13.60;99.90;;;;;;4930426;29;20059;-85
2021/10/03 09:33:52;;;;;;;1.08;0.57;;;13.60;99.90;;;;;;4929805;29;20115;-85
2021/10/03 09:36:24;;;;;;;0.77;0.60;;;13.60;99.90;;;;;;4950667;29;20046;-86
2021/10/03 09:39:00;;;;;;;2.05;0.82;;;13.60;99.90;;;;;;4938861;29;20115;-85
2021/10/03 09:41:35;;;;;;;1.15;0.90;;;13.60;99.90;;;;;;4938841;29;20438;-86
2021/10/03 09:44:08;;;;;;;1.73;0.88;;;13.60;99.90;;;;;;4943112;28;20051;-84
2021/10/03 09:46:36;;;;;;;0.85;0.65;;;13.70;99.90;;;;;;4954440;29;20027;-85
2021/10/03 09:49:06;;;;;;;1.00;0.70;;;13.70;99.90;;;;;;4954438;29;20155;-85
2021/10/03 09:51:33;;;;;;;1.02;0.70;;;13.70;99.90;;;;;;4954856;29;20090;-85
2021/10/03 09:53:59;;;;;;;1.02;0.52;;;13.70;99.90;;;;;;4955282;29;20030;-85
2021/10/03 09:56:27;;;;;;;0.70;0.60;;;13.70;99.90;;;;;;4971423;28;20074;-85
2021/10/03 09:58:54;;;;;;;1.10;0.70;;;13.80;99.90;;;;;;4954316;29;20031;-86
2021/10/03 10:01:22;;;;;;;0.77;0.65;;;13.80;99.90;;;;;;4954180;28;20023;-86
2021/10/03 10:03:48;;;;;;;1.63;0.73;;;13.80;99.90;;;;;;4954722;28;20478;-86
2021/10/03 10:06:15;;;;;;;0.85;0.60;;;13.90;99.90;;;;;;4951342;29;20035;-85
2021/10/03 10:08:41;;;;;;;1.00;0.63;;;13.90;99.90;;;;;;4954258;28;20115;-86
2021/10/03 10:11:26;;;;;;;0.90;0.60;;;14.00;99.90;;;;;;4953962;29;20468;-86
2021/10/03 10:13:57;;;;;;;0.77;0.63;;;14.10;99.90;;;;;;4954546;29;20020;-86
2021/10/03 10:16:41;;;;;;;0.85;0.63;;;14.10;99.90;;;;;;4961619;28;20153;-86
2021/10/03 10:19:33;;;;;;;0.88;0.50;;;14.10;99.90;;;;;;4954022;29;20031;-86
2021/10/03 10:22:22;;;;;;;0.52;0.40;;;14.20;99.90;;;;;;4954084;29;20050;-86
2021/10/03 10:24:54;;;;;;;0.40;0.35;;;14.20;99.90;;;;;;4953336;29;20027;-85
2021/10/03 10:27:28;;;;;;;0.68;0.45;;;14.20;99.90;;;;;;4953977;29;20023;-86
2021/10/03 10:29:59;;;;;;;0.32;0.30;;;14.30;99.90;;;;;;4954342;29;20031;-88
2021/10/03 10:32:54;;;;;;;0.77;0.30;;;14.30;99.90;;;;;;4953444;28;20030;-86
2021/10/03 10:35:22;;;;;;;0.20;0.20;;;14.20;99.90;;;;;;4923469;29;20031;-87
2021/10/03 10:37:51;;;;;;;0.13;0.13;;;14.20;99.90;;;;;;4937870;29;20118;-86
2021/10/03 10:40:26;;;;;;;0.50;0.30;;;14.20;99.90;;;;;;4949494;28;20031;-86
2021/10/03 10:43:01;;;;;;;0.52;0.20;;;14.20;99.90;;;;;;4950123;29;20027;-86
2021/10/03 10:45:27;;;;;;;0.22;0.22;;;14.20;99.90;;;;;;4953787;28;20427;-87
2021/10/03 10:48:09;;;;;;;0.90;0.30;;;14.10;99.90;;;;;;4957915;28;20049;-87
2021/10/03 10:57:11;;;;;;;0.60;0.20;;;14.30;99.90;;;;;;4970349;28;20039;-86
2021/10/03 11:00:24;;;;;;;0.60;0.30;;;14.40;99.90;;;;;;4974517;28;20022;-86
2021/10/03 11:02:57;;;;;;;0.20;0.20;;;14.50;99.90;;;;;;4952010;28;20046;-86
2021/10/03 11:05:40;;;;;;;0.80;0.30;;;14.50;99.90;;;;;;4969716;28;20022;-85
2021/10/03 11:08:11;;;;;;;0.93;0.50;;;14.60;99.90;;;;;;4957699;28;20022;-85
2021/10/03 11:10:59;;;;;;;0.47;0.40;;;14.60;99.90;;;;;;4953786;29;20082;-87
2021/10/03 11:13:48;;;;;;;0.50;0.40;;;14.70;99.90;;;;;;4953877;29;20023;-85
2021/10/03 11:16:26;;;;;;;0.60;0.40;;;14.70;99.90;;;;;;4953090;29;20019;-87
2021/10/03 11:18:59;;;;;;;1.00;0.52;;;14.70;99.90;;;;;;4959806;28;20053;-86
2021/10/03 11:21:35;;;;;;;0.75;0.55;;;14.70;99.90;;;;;;4986725;28;20047;-86
2021/10/03 11:24:07;;;;;;;1.25;0.60;;;14.70;99.90;;;;;;4973620;28;20285;-86
2021/10/03 11:26:51;;;;;;;0.60;0.50;;;14.60;99.90;;;;;;4993829;28;20069;-86
2021/10/03 11:29:42;;;;;;;0.98;0.80;;;14.60;99.90;;;;;;4977437;28;20421;-86
2021/10/03 11:38:59;;;;;;;0.77;0.60;;;14.60;99.90;;;;;;4972353;28;20086;-86
2021/10/03 11:41:26;;;;;;;0.77;0.70;;;14.50;99.90;;;;;;4956062;28;20108;-87
2021/10/03 11:43:53;;;;;;;1.85;1.00;;;14.60;99.90;;;;;;4954199;28;20122;-86
2021/10/03 11:46:31;;;;;;;0.93;0.80;;;14.60;99.90;;;;;;4955558;28;20050;-86
2021/10/03 11:48:57;;;;;;;0.90;0.80;;;14.60;99.90;;;;;;4955109;28;20535;-86
2021/10/03 11:51:43;;;;;;;0.75;0.75;;;14.60;99.90;;;;;;4955444;28;20109;-86
2021/10/03 11:54:11;;;;;;;1.00;0.70;;;14.50;99.90;;;;;;4955874;28;20014;-86
2021/10/03 11:56:37;;;;;;;1.30;0.75;;;14.40;99.90;;;;;;4965748;28;20053;-87
2021/10/03 11:59:04;;;;;;;0.88;0.77;;;14.40;99.90;;;;;;4957040;28;20026;-86
2021/10/03 12:01:32;;;;;;;0.80;0.70;;;14.40;99.90;;;;;;4974116;28;20015;-87
2021/10/03 12:03:58;;;;;;;0.98;0.80;;;14.50;99.90;;;;;;4957285;28;20023;-87
2021/10/03 12:10:36;;;;;;;1.00;0.70;;;14.60;99.90;;;;;;4973579;28;20097;-87
2021/10/03 12:13:19;;;;;;;0.82;0.70;;;14.60;99.90;;;;;;4969544;28;20065;-88
2021/10/03 12:15:51;;;;;;;;;;;14.60;99.90;;;;;;4970668;28;20017;-86
2021/10/03 12:18:29;;;;;;;0.80;0.52;;;14.50;99.90;;;;;;4956203;28;19910;-87
2021/10/03 12:21:01;;;;;;;0.70;0.60;;;14.60;99.90;;;;;;4956092;28;20110;-87
2021/10/03 12:24:17;;;;;;;0.70;0.55;;;14.70;99.90;;;;;;4956064;28;20034;-87
2021/10/03 12:27:06;;;;;;;0.60;0.60;;;14.80;99.90;;;;;;4956634;28;20058;-87
2021/10/03 12:29:33;;;;;;;0.90;0.52;;;14.80;99.90;;;;;;4966515;28;20097;-87
2021/10/03 12:32:15;;;;;;;0.57;0.50;;;14.80;99.90;;;;;;4973817;28;20030;-88
2021/10/03 12:34:43;;;;;;;0.95;0.55;;;14.80;99.90;;;;;;4977284;28;20011;-86
2021/10/03 12:37:14;;;;;;;1.90;0.50;;;14.80;99.90;;;;;;4959860;28;20111;-88
2021/10/03 12:39:45;;;;;;;0.60;0.40;;;14.80;99.90;;;;;;4959594;28;20015;-87
2021/10/03 12:42:14;;;;;;;0.70;0.50;;;14.70;99.90;;;;;;4959775;28;20113;-88
2021/10/03 12:44:44;;;;;;;1.33;0.60;;;14.70;99.90;;;;;;4969002;28;20051;-87
2021/10/03 12:47:12;;;;;;;1.42;0.70;;;14.80;99.90;;;;;;4971969;28;20023;-87
2021/10/03 12:49:40;;;;;;;1.75;1.00;;;14.90;99.90;;;;;;4976416;28;20043;-87
2021/10/03 12:52:08;;;;;;;1.88;1.17;;;14.90;99.90;;;;;;4976798;28;20475;-88
2021/10/03 12:54:34;;;;;;;2.65;2.20;;;14.80;99.90;;;;;;4959986;28;20124;-89
2021/10/03 12:57:03;;;;;;;3.22;2.60;;;14.80;99.90;;;;;;4972320;28;20059;-88
2021/10/03 12:59:29;;;;;;;3.75;3.13;;;14.70;99.90;;;;;;4972684;28;20027;-88
2021/10/03 13:01:56;;;;;;;3.38;2.95;;;14.60;99.90;;;;;;4972945;28;20029;-88
2021/10/03 13:04:23;;;;;;;3.60;3.10;;;14.60;99.90;;;;;;4972878;28;20029;-89
2021/10/03 13:06:51;;;;;;;4.20;3.20;;;14.60;99.90;;;;;;4972726;28;20078;-88
2021/10/03 13:09:18;;;;;;;3.08;2.70;;;14.50;99.90;;;;;;4956526;29;20027;-89
2021/10/03 13:11:45;;;;;;;3.47;2.72;;;14.50;99.90;;;;;;4972482;28;20031;-89
2021/10/03 13:14:11;;;;;;;3.20;2.90;;;14.50;99.90;;;;;;4975083;28;20031;-88